sensor_id;sensor_type;location;lat;lon;timestamp;temperature;humidity
6407;DHT22;3236;51.022;6.818;2022-10-16T00:01:06;13.80;99.90
6407;DHT22;3236;51.022;6.818;2022-10-16T00:03:33;13.30;99.90
6407;DHT22;3236;51.022;6.818;2022-10-16T00:06:01;13.20;99.90
6407;DHT22;3236;51.022;6.818;2022-10-16T00:08:28;13.30;99.90
6407;DHT22;3236;51.022;6.818;2022-10-16T00:10:59;13.70;99.90
6407;DHT22;3236;51.022;6.818;2022-10-16T00:13:27;13.50;99.90
6407;DHT22;3236;51.022;6.818;2022-10-16T00:15:55;13.90;99.90
6407;DHT22;3236;51.022;6.818;2022-10-16T00:18:24;13.40;99.90
6407;DHT22;3236;51.022;6.818;2022-10-16T00:20:51;13.80;99.90
6407;DHT22;3236;51.022;6.818;2022-10-16T00:25:55;13.60;99.90
6407;DHT22;3236;51.022;6.818;2022-10-16T00:28:23;13.60;99.90
6407;DHT22;3236;51.022;6.818;2022-10-16T00:30:50;13.30;99.90
6407;DHT22;3236;51.022;6.818;2022-10-16T00:33:17;13.90;99.90
6407;DHT22;3236;51.022;6.818;2022-10-16T00:35:46;13.90;99.90
6407;DHT22;3236;51.022;6.818;2022-10-16T00:38:13;13.20;99.90
6407;DHT22;3236;51.022;6.818;2022-10-16T00:40:40;13.40;99.90
6407;DHT22;3236;51.022;6.818;2022-10-16T00:43:12;13.20;99.90
6407;DHT22;3236;51.022;6.818;2022-10-16T00:45:40;13.10;99.90
6407;DHT22;3236;51.022;6.818;2022-10-16T00:48:11;13.50;99.90
6407;DHT22;3236;51.022;6.818;2022-10-16T00:50:39;13.20;99.90
6407;DHT22;3236;51.022;6.818;2022-10-16T00:53:10;13.30;99.90
6407;DHT22;3236;51.022;6.818;2022-10-16T00:55:38;13.10;99.90
6407;DHT22;3236;51.022;6.818;2022-10-16T00:58:06;13.40;99.90
6407;DHT22;3236;51.022;6.818;2022-10-16T01:00:33;13.20;99.90
6407;DHT22;3236;51.022;6.818;2022-10-16T01:03:01;13.40;99.90
6407;DHT22;3236;51.022;6.818;2022-10-16T01:05:39;12.90;99.90
6407;DHT22;3236;51.022;6.818;2022-10-16T01:08:21;12.90;99.90
6407;DHT22;3236;51.022;6.818;2022-10-16T01:10:56;13.60;99.90
6407;DHT22;3236;51.022;6.818;2022-10-16T01:13:27;13.30;99.90
6407;DHT22;3236;51.022;6.818;2022-10-16T01:16:01;13.30;99.90
6407;DHT22;3236;51.022;6.818;2022-10-16T01:18:35;13.70;99.90
6407;DHT22;3236;51.022;6.818;2022-10-16T01:21:06;13.20;99.90
6407;DHT22;3236;51.022;6.818;2022-10-16T01:23:45;13.60;99.90
6407;DHT22;3236;51.022;6.818;2022-10-16T01:26:29;13.40;99.90
6407;DHT22;3236;51.022;6.818;2022-10-16T01:29:04;13.40;99.90
6407;DHT22;3236;51.022;6.818;2022-10-16T01:31:36;13.70;99.90
6407;DHT22;3236;51.022;6.818;2022-10-16T01:34:08;13.20;99.90
6407;DHT22;3236;51.022;6.818;2022-10-16T01:36:40;13.40;99.90
6407;DHT22;3236;51.022;6.818;2022-10-16T01:39:10;13.90;99.90
6407;DHT22;3236;51.022;6.818;2022-10-16T01:41:41;13.40;99.90
6407;DHT22;3236;51.022;6.818;2022-10-16T01:44:13;13.60;99.90
6407;DHT22;3236;51.022;6.818;2022-10-16T01:46:46;13.60;99.90
6407;DHT22;3236;51.022;6.818;2022-10-16T01:49:14;13.60;99.90
6407;DHT22;3236;51.022;6.818;2022-10-16T01:51:48;13.50;99.90
6407;DHT22;3236;51.022;6.818;2022-10-16T01:54:18;13.60;99.90
6407;DHT22;3236;51.022;6.818;2022-10-16T01:56:46;13.80;99.90
6407;DHT22;3236;51.022;6.818;2022-10-16T01:59:17;13.70;99.90
6407;DHT22;3236;51.022;6.818;2022-10-16T02:01:47;13.20;99.90
6407;DHT22;3236;51.022;6.818;2022-10-16T02:04:19;13.70;99.90
6407;DHT22;3236;51.022;6.818;2022-10-16T02:06:47;13.60;99.90
6407;DHT22;3236;51.022;6.818;2022-10-16T02:09:14;13.50;99.90
6407;DHT22;3236;51.022;6.818;2022-10-16T02:11:42;13.40;99.90
6407;DHT22;3236;51.022;6.818;2022-10-16T02:14:10;13.90;99.90
6407;DHT22;3236;51.022;6.818;2022-10-16T02:16:40;14.20;99.90
6407;DHT22;3236;51.022;6.818;2022-10-16T02:19:08;14.20;99.90
6407;DHT22;3236;51.022;6.818;2022-10-16T02:21:40;13.60;99.90
6407;DHT22;3236;51.022;6.818;2022-10-16T02:24:15;13.80;99.90
6407;DHT22;3236;51.022;6.818;2022-10-16T02:26:52;14.00;99.90
6407;DHT22;3236;51.022;6.818;2022-10-16T02:29:26;13.30;99.90
6407;DHT22;3236;51.022;6.818;2022-10-16T02:31:59;14.10;99.90
6407;DHT22;3236;51.022;6.818;2022-10-16T02:34:28;13.40;99.90
6407;DHT22;3236;51.022;6.818;2022-10-16T02:36:57;13.70;99.90
6407;DHT22;3236;51.022;6.818;2022-10-16T02:39:26;13.70;99.90
6407;DHT22;3236;51.022;6.818;2022-10-16T02:44:21;13.80;99.90
6407;DHT22;3236;51.022;6.818;2022-10-16T02:46:48;13.60;99.90
6407;DHT22;3236;51.022;6.818;2022-10-16T02:51:43;13.40;99.90
6407;DHT22;3236;51.022;6.818;2022-10-16T02:54:10;14.00;99.90
6407;DHT22;3236;51.022;6.818;2022-10-16T02:59:05;13.60;99.90
6407;DHT22;3236;51.022;6.818;2022-10-16T03:01:32;13.30;99.90
6407;DHT22;3236;51.022;6.818;2022-10-16T03:03:59;13.20;99.90
6407;DHT22;3236;51.022;6.818;2022-10-16T03:06:27;13.40;99.90
6407;DHT22;3236;51.022;6.818;2022-10-16T03:11:22;13.40;99.90
6407;DHT22;3236;51.022;6.818;2022-10-16T03:16:16;13.40;99.90
6407;DHT22;3236;51.022;6.818;2022-10-16T03:18:43;13.00;99.90
6407;DHT22;3236;51.022;6.818;2022-10-16T03:21:09;12.90;99.90
6407;DHT22;3236;51.022;6.818;2022-10-16T03:23:38;13.20;99.90
6407;DHT22;3236;51.022;6.818;2022-10-16T03:26:05;13.20;99.90
6407;DHT22;3236;51.022;6.818;2022-10-16T03:30:59;12.80;99.90
6407;DHT22;3236;51.022;6.818;2022-10-16T03:33:26;13.50;99.90
6407;DHT22;3236;51.022;6.818;2022-10-16T03:35:53;12.90;99.90
6407;DHT22;3236;51.022;6.818;2022-10-16T03:38:21;12.90;99.90
6407;DHT22;3236;51.022;6.818;2022-10-16T03:40:49;13.70;99.90
6407;DHT22;3236;51.022;6.818;2022-10-16T03:43:16;13.50;99.90
6407;DHT22;3236;51.022;6.818;2022-10-16T03:45:43;13.50;99.90
6407;DHT22;3236;51.022;6.818;2022-10-16T03:48:10;13.60;99.90
6407;DHT22;3236;51.022;6.818;2022-10-16T03:50:37;13.50;99.90
6407;DHT22;3236;51.022;6.818;2022-10-16T03:53:04;13.10;99.90
6407;DHT22;3236;51.022;6.818;2022-10-16T03:55:31;13.30;99.90
6407;DHT22;3236;51.022;6.818;2022-10-16T03:57:59;13.20;99.90
6407;DHT22;3236;51.022;6.818;2022-10-16T04:00:33;13.10;99.90
6407;DHT22;3236;51.022;6.818;2022-10-16T04:03:00;13.30;99.90
6407;DHT22;3236;51.022;6.818;2022-10-16T04:05:27;13.30;99.90
6407;DHT22;3236;51.022;6.818;2022-10-16T04:07:57;13.40;99.90
6407;DHT22;3236;51.022;6.818;2022-10-16T04:10:24;13.80;99.90
6407;DHT22;3236;51.022;6.818;2022-10-16T04:15:21;13.90;99.90
6407;DHT22;3236;51.022;6.818;2022-10-16T04:17:48;13.60;99.90
6407;DHT22;3236;51.022;6.818;2022-10-16T04:20:15;13.10;99.90
6407;DHT22;3236;51.022;6.818;2022-10-16T04:22:42;13.80;99.90
6407;DHT22;3236;51.022;6.818;2022-10-16T04:25:10;13.90;99.90
6407;DHT22;3236;51.022;6.818;2022-10-16T04:27:38;13.60;99.90
6407;DHT22;3236;51.022;6.818;2022-10-16T04:30:06;13.20;99.90
6407;DHT22;3236;51.022;6.818;2022-10-16T04:32:34;13.20;99.90
6407;DHT22;3236;51.022;6.818;2022-10-16T04:35:01;12.90;99.90
6407;DHT22;3236;51.022;6.818;2022-10-16T04:37:28;12.90;99.90
6407;DHT22;3236;51.022;6.818;2022-10-16T04:39:55;12.80;99.90
6407;DHT22;3236;51.022;6.818;2022-10-16T04:42:22;12.70;99.90
6407;DHT22;3236;51.022;6.818;2022-10-16T04:44:49;13.40;99.90
6407;DHT22;3236;51.022;6.818;2022-10-16T04:47:16;13.10;99.90
6407;DHT22;3236;51.022;6.818;2022-10-16T04:49:44;13.10;99.90
6407;DHT22;3236;51.022;6.818;2022-10-16T04:52:11;13.30;99.90
6407;DHT22;3236;51.022;6.818;2022-10-16T04:54:38;13.10;99.90
6407;DHT22;3236;51.022;6.818;2022-10-16T04:57:05;13.50;99.90
6407;DHT22;3236;51.022;6.818;2022-10-16T05:06:55;13.10;99.90
6407;DHT22;3236;51.022;6.818;2022-10-16T05:09:22;13.00;99.90
6407;DHT22;3236;51.022;6.818;2022-10-16T05:11:49;13.30;99.90
6407;DHT22;3236;51.022;6.818;2022-10-16T05:14:17;13.00;99.90
6407;DHT22;3236;51.022;6.818;2022-10-16T05:16:44;13.30;99.90
6407;DHT22;3236;51.022;6.818;2022-10-16T05:19:11;13.40;99.90
6407;DHT22;3236;51.022;6.818;2022-10-16T05:21:38;12.70;99.90
6407;DHT22;3236;51.022;6.818;2022-10-16T05:24:07;12.90;99.90
6407;DHT22;3236;51.022;6.818;2022-10-16T05:26:34;12.50;99.90
6407;DHT22;3236;51.022;6.818;2022-10-16T05:31:29;12.70;99.90
6407;DHT22;3236;51.022;6.818;2022-10-16T05:33:58;12.80;99.90
6407;DHT22;3236;51.022;6.818;2022-10-16T05:36:25;13.30;99.90
6407;DHT22;3236;51.022;6.818;2022-10-16T05:41:21;12.90;99.90
6407;DHT22;3236;51.022;6.818;2022-10-16T05:43:51;12.80;99.90
6407;DHT22;3236;51.022;6.818;2022-10-16T05:46:18;13.00;99.90
6407;DHT22;3236;51.022;6.818;2022-10-16T05:48:45;12.80;99.90
6407;DHT22;3236;51.022;6.818;2022-10-16T05:51:13;13.10;99.90
6407;DHT22;3236;51.022;6.818;2022-10-16T05:53:41;12.90;99.90
6407;DHT22;3236;51.022;6.818;2022-10-16T05:56:10;13.30;99.90
6407;DHT22;3236;51.022;6.818;2022-10-16T05:58:39;13.10;99.90
6407;DHT22;3236;51.022;6.818;2022-10-16T06:01:09;12.90;99.90
6407;DHT22;3236;51.022;6.818;2022-10-16T06:06:10;12.70;99.90
6407;DHT22;3236;51.022;6.818;2022-10-16T06:08:38;13.10;99.90
6407;DHT22;3236;51.022;6.818;2022-10-16T06:11:06;12.80;99.90
6407;DHT22;3236;51.022;6.818;2022-10-16T06:13:33;12.80;99.90
6407;DHT22;3236;51.022;6.818;2022-10-16T06:16:03;12.40;99.90
6407;DHT22;3236;51.022;6.818;2022-10-16T06:18:30;13.00;99.90
6407;DHT22;3236;51.022;6.818;2022-10-16T06:20:57;13.10;99.90
6407;DHT22;3236;51.022;6.818;2022-10-16T06:25:52;13.10;99.90
6407;DHT22;3236;51.022;6.818;2022-10-16T06:28:19;12.70;99.90
6407;DHT22;3236;51.022;6.818;2022-10-16T06:30:46;13.30;99.90
6407;DHT22;3236;51.022;6.818;2022-10-16T06:33:14;12.70;99.90
6407;DHT22;3236;51.022;6.818;2022-10-16T06:35:41;13.20;99.90
6407;DHT22;3236;51.022;6.818;2022-10-16T06:40:35;13.20;99.90
6407;DHT22;3236;51.022;6.818;2022-10-16T06:43:02;13.00;99.90
6407;DHT22;3236;51.022;6.818;2022-10-16T06:45:29;13.70;99.90
6407;DHT22;3236;51.022;6.818;2022-10-16T06:47:56;13.80;99.90
6407;DHT22;3236;51.022;6.818;2022-10-16T06:50:24;13.90;99.90
6407;DHT22;3236;51.022;6.818;2022-10-16T06:52:51;13.60;99.90
6407;DHT22;3236;51.022;6.818;2022-10-16T06:55:18;13.30;99.90
6407;DHT22;3236;51.022;6.818;2022-10-16T06:57:47;13.70;99.90
6407;DHT22;3236;51.022;6.818;2022-10-16T07:00:14;13.80;99.90
6407;DHT22;3236;51.022;6.818;2022-10-16T07:02:41;13.60;99.90
6407;DHT22;3236;51.022;6.818;2022-10-16T07:05:08;13.90;99.90
6407;DHT22;3236;51.022;6.818;2022-10-16T07:07:37;13.70;99.90
6407;DHT22;3236;51.022;6.818;2022-10-16T07:10:04;14.10;99.90
6407;DHT22;3236;51.022;6.818;2022-10-16T07:12:31;13.60;99.90
6407;DHT22;3236;51.022;6.818;2022-10-16T07:14:58;14.00;99.90
6407;DHT22;3236;51.022;6.818;2022-10-16T07:17:25;14.50;99.90
6407;DHT22;3236;51.022;6.818;2022-10-16T07:19:52;14.20;99.90
6407;DHT22;3236;51.022;6.818;2022-10-16T07:22:21;14.50;99.90
6407;DHT22;3236;51.022;6.818;2022-10-16T07:24:49;14.00;99.90
6407;DHT22;3236;51.022;6.818;2022-10-16T07:27:17;14.10;99.90
6407;DHT22;3236;51.022;6.818;2022-10-16T07:29:44;14.10;99.90
6407;DHT22;3236;51.022;6.818;2022-10-16T07:34:38;13.50;99.90
6407;DHT22;3236;51.022;6.818;2022-10-16T07:37:05;14.50;99.90
6407;DHT22;3236;51.022;6.818;2022-10-16T07:39:32;14.00;99.90
6407;DHT22;3236;51.022;6.818;2022-10-16T07:42:00;14.00;99.90
6407;DHT22;3236;51.022;6.818;2022-10-16T07:44:27;14.10;99.90
6407;DHT22;3236;51.022;6.818;2022-10-16T07:46:54;13.90;99.90
6407;DHT22;3236;51.022;6.818;2022-10-16T07:49:21;14.30;99.90
6407;DHT22;3236;51.022;6.818;2022-10-16T07:51:48;14.20;99.90
6407;DHT22;3236;51.022;6.818;2022-10-16T07:54:15;14.10;99.90
6407;DHT22;3236;51.022;6.818;2022-10-16T07:56:42;14.30;99.90
6407;DHT22;3236;51.022;6.818;2022-10-16T07:59:10;14.60;99.90
6407;DHT22;3236;51.022;6.818;2022-10-16T08:04:05;14.30;99.90
6407;DHT22;3236;51.022;6.818;2022-10-16T08:06:35;14.80;99.90
6407;DHT22;3236;51.022;6.818;2022-10-16T08:09:02;14.80;99.90
6407;DHT22;3236;51.022;6.818;2022-10-16T08:11:29;14.90;99.90
6407;DHT22;3236;51.022;6.818;2022-10-16T08:16:25;15.20;99.90
6407;DHT22;3236;51.022;6.818;2022-10-16T08:18:52;15.60;99.90
6407;DHT22;3236;51.022;6.818;2022-10-16T08:21:21;15.70;99.90
6407;DHT22;3236;51.022;6.818;2022-10-16T08:26:16;15.00;99.90
6407;DHT22;3236;51.022;6.818;2022-10-16T08:28:44;15.30;99.90
6407;DHT22;3236;51.022;6.818;2022-10-16T08:31:13;15.00;99.90
6407;DHT22;3236;51.022;6.818;2022-10-16T08:33:44;15.40;99.90
6407;DHT22;3236;51.022;6.818;2022-10-16T08:38:39;16.20;99.90
6407;DHT22;3236;51.022;6.818;2022-10-16T08:44:29;15.90;99.90
6407;DHT22;3236;51.022;6.818;2022-10-16T08:47:02;15.90;99.90
6407;DHT22;3236;51.022;6.818;2022-10-16T08:49:33;16.30;99.90
6407;DHT22;3236;51.022;6.818;2022-10-16T08:52:00;16.30;99.90
6407;DHT22;3236;51.022;6.818;2022-10-16T08:54:31;16.40;99.90
6407;DHT22;3236;51.022;6.818;2022-10-16T08:57:07;16.90;99.90
6407;DHT22;3236;51.022;6.818;2022-10-16T09:02:18;16.40;99.90
6407;DHT22;3236;51.022;6.818;2022-10-16T09:05:10;16.40;99.90
6407;DHT22;3236;51.022;6.818;2022-10-16T09:07:50;16.80;99.90
6407;DHT22;3236;51.022;6.818;2022-10-16T09:10:30;16.90;99.90
6407;DHT22;3236;51.022;6.818;2022-10-16T09:13:11;17.30;99.90
6407;DHT22;3236;51.022;6.818;2022-10-16T09:15:46;16.60;99.90
6407;DHT22;3236;51.022;6.818;2022-10-16T09:18:19;16.90;99.90
6407;DHT22;3236;51.022;6.818;2022-10-16T09:20:56;16.80;99.90
6407;DHT22;3236;51.022;6.818;2022-10-16T09:23:35;17.30;99.90
6407;DHT22;3236;51.022;6.818;2022-10-16T09:26:05;17.50;99.90
6407;DHT22;3236;51.022;6.818;2022-10-16T09:28:34;17.10;99.90
6407;DHT22;3236;51.022;6.818;2022-10-16T09:31:01;17.00;99.90
6407;DHT22;3236;51.022;6.818;2022-10-16T09:33:35;17.50;99.90
6407;DHT22;3236;51.022;6.818;2022-10-16T09:36:05;17.20;99.90
6407;DHT22;3236;51.022;6.818;2022-10-16T09:38:34;17.20;99.90
6407;DHT22;3236;51.022;6.818;2022-10-16T09:41:10;17.50;99.90
6407;DHT22;3236;51.022;6.818;2022-10-16T09:43:40;17.50;99.90
6407;DHT22;3236;51.022;6.818;2022-10-16T09:46:19;17.60;99.90
6407;DHT22;3236;51.022;6.818;2022-10-16T09:48:50;17.40;99.90
6407;DHT22;3236;51.022;6.818;2022-10-16T09:51:23;17.60;99.90
6407;DHT22;3236;51.022;6.818;2022-10-16T09:53:54;17.80;99.90
6407;DHT22;3236;51.022;6.818;2022-10-16T09:56:24;18.10;99.90
6407;DHT22;3236;51.022;6.818;2022-10-16T09:58:52;18.20;99.90
6407;DHT22;3236;51.022;6.818;2022-10-16T10:01:21;17.80;99.90
6407;DHT22;3236;51.022;6.818;2022-10-16T10:03:50;18.10;99.90
6407;DHT22;3236;51.022;6.818;2022-10-16T10:06:22;18.20;99.90
6407;DHT22;3236;51.022;6.818;2022-10-16T10:08:59;18.30;99.90
6407;DHT22;3236;51.022;6.818;2022-10-16T10:14:25;18.40;99.90
6407;DHT22;3236;51.022;6.818;2022-10-16T10:17:09;18.30;99.90
6407;DHT22;3236;51.022;6.818;2022-10-16T10:19:46;19.20;99.90
6407;DHT22;3236;51.022;6.818;2022-10-16T10:22:30;18.80;99.90
6407;DHT22;3236;51.022;6.818;2022-10-16T10:25:15;18.80;99.90
6407;DHT22;3236;51.022;6.818;2022-10-16T10:27:50;19.20;99.90
6407;DHT22;3236;51.022;6.818;2022-10-16T10:30:22;19.00;99.90
6407;DHT22;3236;51.022;6.818;2022-10-16T10:33:08;19.60;99.90
6407;DHT22;3236;51.022;6.818;2022-10-16T10:35:44;21.60;99.90
6407;DHT22;3236;51.022;6.818;2022-10-16T10:38:24;19.00;99.90
6407;DHT22;3236;51.022;6.818;2022-10-16T10:40:57;19.10;99.90
6407;DHT22;3236;51.022;6.818;2022-10-16T10:43:39;18.80;99.90
6407;DHT22;3236;51.022;6.818;2022-10-16T10:46:16;18.90;99.90
6407;DHT22;3236;51.022;6.818;2022-10-16T10:48:57;19.10;99.90
6407;DHT22;3236;51.022;6.818;2022-10-16T10:51:30;18.80;99.90
6407;DHT22;3236;51.022;6.818;2022-10-16T10:54:14;18.90;99.90
6407;DHT22;3236;51.022;6.818;2022-10-16T10:56:50;18.60;99.90
6407;DHT22;3236;51.022;6.818;2022-10-16T10:59:57;18.70;99.90
6407;DHT22;3236;51.022;6.818;2022-10-16T11:02:33;19.20;99.90
6407;DHT22;3236;51.022;6.818;2022-10-16T11:05:23;20.40;99.90
6407;DHT22;3236;51.022;6.818;2022-10-16T11:07:58;20.70;99.90
6407;DHT22;3236;51.022;6.818;2022-10-16T11:10:33;20.10;99.90
6407;DHT22;3236;51.022;6.818;2022-10-16T11:13:16;21.10;99.90
6407;DHT22;3236;51.022;6.818;2022-10-16T11:15:47;20.80;99.90
6407;DHT22;3236;51.022;6.818;2022-10-16T11:18:19;21.50;99.90
6407;DHT22;3236;51.022;6.818;2022-10-16T11:20:50;21.10;99.90
6407;DHT22;3236;51.022;6.818;2022-10-16T11:23:23;21.20;99.90
6407;DHT22;3236;51.022;6.818;2022-10-16T11:25:54;21.00;99.90
6407;DHT22;3236;51.022;6.818;2022-10-16T11:28:27;21.50;99.90
6407;DHT22;3236;51.022;6.818;2022-10-16T11:30:57;21.20;99.90
6407;DHT22;3236;51.022;6.818;2022-10-16T11:33:30;21.10;99.90
6407;DHT22;3236;51.022;6.818;2022-10-16T11:36:07;21.60;99.90
6407;DHT22;3236;51.022;6.818;2022-10-16T11:38:41;20.90;99.90
6407;DHT22;3236;51.022;6.818;2022-10-16T11:41:18;20.60;99.90
6407;DHT22;3236;51.022;6.818;2022-10-16T11:43:52;19.80;99.90
6407;DHT22;3236;51.022;6.818;2022-10-16T11:46:24;20.10;99.90
6407;DHT22;3236;51.022;6.818;2022-10-16T11:48:56;19.60;99.90
6407;DHT22;3236;51.022;6.818;2022-10-16T11:51:33;20.00;99.90
6407;DHT22;3236;51.022;6.818;2022-10-16T11:54:08;20.50;99.90
6407;DHT22;3236;51.022;6.818;2022-10-16T11:56:45;20.70;99.90
6407;DHT22;3236;51.022;6.818;2022-10-16T11:59:14;20.70;99.90
6407;DHT22;3236;51.022;6.818;2022-10-16T12:01:46;21.20;99.90
6407;DHT22;3236;51.022;6.818;2022-10-16T12:04:22;21.00;99.90
6407;DHT22;3236;51.022;6.818;2022-10-16T12:06:57;20.80;99.90
6407;DHT22;3236;51.022;6.818;2022-10-16T12:09:27;21.40;99.90
6407;DHT22;3236;51.022;6.818;2022-10-16T12:11:57;21.90;99.90
6407;DHT22;3236;51.022;6.818;2022-10-16T12:14:36;22.30;99.90
6407;DHT22;3236;51.022;6.818;2022-10-16T12:19:57;21.10;99.90
6407;DHT22;3236;51.022;6.818;2022-10-16T12:22:28;22.40;99.90
6407;DHT22;3236;51.022;6.818;2022-10-16T12:24:55;22.00;99.90
6407;DHT22;3236;51.022;6.818;2022-10-16T12:27:28;21.80;99.90
6407;DHT22;3236;51.022;6.818;2022-10-16T12:29:57;21.60;99.90
6407;DHT22;3236;51.022;6.818;2022-10-16T12:32:30;22.00;99.90
6407;DHT22;3236;51.022;6.818;2022-10-16T12:34:59;22.60;99.90
6407;DHT22;3236;51.022;6.818;2022-10-16T12:37:29;22.70;99.90
6407;DHT22;3236;51.022;6.818;2022-10-16T12:39:58;23.70;99.90
6407;DHT22;3236;51.022;6.818;2022-10-16T12:42:34;23.70;99.90
6407;DHT22;3236;51.022;6.818;2022-10-16T12:45:25;20.70;99.90
6407;DHT22;3236;51.022;6.818;2022-10-16T12:48:01;22.60;99.90
6407;DHT22;3236;51.022;6.818;2022-10-16T12:50:34;22.70;99.90
6407;DHT22;3236;51.022;6.818;2022-10-16T12:53:03;22.60;99.90
6407;DHT22;3236;51.022;6.818;2022-10-16T12:55:35;22.40;99.90
6407;DHT22;3236;51.022;6.818;2022-10-16T12:58:29;22.90;99.90
6407;DHT22;3236;51.022;6.818;2022-10-16T13:01:09;22.70;99.90
6407;DHT22;3236;51.022;6.818;2022-10-16T13:03:55;22.60;99.90
6407;DHT22;3236;51.022;6.818;2022-10-16T13:06:33;22.20;99.90
6407;DHT22;3236;51.022;6.818;2022-10-16T13:09:20;22.80;99.90
6407;DHT22;3236;51.022;6.818;2022-10-16T13:12:09;22.80;99.90
6407;DHT22;3236;51.022;6.818;2022-10-16T13:14:56;22.70;99.90
6407;DHT22;3236;51.022;6.818;2022-10-16T13:17:30;22.80;99.90
6407;DHT22;3236;51.022;6.818;2022-10-16T13:20:09;22.20;99.90
6407;DHT22;3236;51.022;6.818;2022-10-16T13:22:45;23.40;99.90
6407;DHT22;3236;51.022;6.818;2022-10-16T13:25:23;24.20;99.90
6407;DHT22;3236;51.022;6.818;2022-10-16T13:28:05;25.20;99.40
6407;DHT22;3236;51.022;6.818;2022-10-16T13:30:38;26.00;92.00
6407;DHT22;3236;51.022;6.818;2022-10-16T13:33:14;26.30;92.00
6407;DHT22;3236;51.022;6.818;2022-10-16T13:35:49;26.00;90.20
6407;DHT22;3236;51.022;6.818;2022-10-16T13:38:19;27.60;90.20
6407;DHT22;3236;51.022;6.818;2022-10-16T13:40:51;27.50;84.80
6407;DHT22;3236;51.022;6.818;2022-10-16T13:43:19;27.50;85.30
6407;DHT22;3236;51.022;6.818;2022-10-16T13:46:00;27.50;86.30
6407;DHT22;3236;51.022;6.818;2022-10-16T13:48:28;26.80;86.20
6407;DHT22;3236;51.022;6.818;2022-10-16T13:51:04;27.40;82.40
6407;DHT22;3236;51.022;6.818;2022-10-16T13:53:33;25.80;81.20
6407;DHT22;3236;51.022;6.818;2022-10-16T13:56:03;25.70;87.50
6407;DHT22;3236;51.022;6.818;2022-10-16T13:58:30;24.90;82.90
6407;DHT22;3236;51.022;6.818;2022-10-16T14:01:01;24.10;89.00
6407;DHT22;3236;51.022;6.818;2022-10-16T14:03:29;23.80;87.80
6407;DHT22;3236;51.022;6.818;2022-10-16T14:05:59;23.70;90.50
6407;DHT22;3236;51.022;6.818;2022-10-16T14:10:56;23.40;94.30
6407;DHT22;3236;51.022;6.818;2022-10-16T14:13:30;23.10;93.80
6407;DHT22;3236;51.022;6.818;2022-10-16T14:16:05;23.00;96.30
6407;DHT22;3236;51.022;6.818;2022-10-16T14:18:33;22.20;93.40
6407;DHT22;3236;51.022;6.818;2022-10-16T14:21:06;21.40;96.20
6407;DHT22;3236;51.022;6.818;2022-10-16T14:23:36;21.90;98.50
6407;DHT22;3236;51.022;6.818;2022-10-16T14:26:12;21.50;99.60
6407;DHT22;3236;51.022;6.818;2022-10-16T14:28:40;21.20;99.90
6407;DHT22;3236;51.022;6.818;2022-10-16T14:31:28;21.00;99.90
6407;DHT22;3236;51.022;6.818;2022-10-16T14:33:55;21.00;99.90
6407;DHT22;3236;51.022;6.818;2022-10-16T14:36:23;21.00;99.90
6407;DHT22;3236;51.022;6.818;2022-10-16T14:39:01;21.30;99.90
6407;DHT22;3236;51.022;6.818;2022-10-16T14:41:42;20.40;99.90
6407;DHT22;3236;51.022;6.818;2022-10-16T14:44:11;20.60;99.90
6407;DHT22;3236;51.022;6.818;2022-10-16T14:46:41;20.80;99.90
6407;DHT22;3236;51.022;6.818;2022-10-16T14:49:15;21.00;99.90
6407;DHT22;3236;51.022;6.818;2022-10-16T14:51:43;21.20;99.90
6407;DHT22;3236;51.022;6.818;2022-10-16T14:56:45;20.60;99.90
6407;DHT22;3236;51.022;6.818;2022-10-16T14:59:16;21.00;99.90
6407;DHT22;3236;51.022;6.818;2022-10-16T15:01:46;20.50;99.90
6407;DHT22;3236;51.022;6.818;2022-10-16T15:04:13;20.30;99.90
6407;DHT22;3236;51.022;6.818;2022-10-16T15:06:41;20.60;99.90
6407;DHT22;3236;51.022;6.818;2022-10-16T15:09:08;20.70;99.90
6407;DHT22;3236;51.022;6.818;2022-10-16T15:16:30;20.10;99.90
6407;DHT22;3236;51.022;6.818;2022-10-16T15:21:28;20.40;99.90
6407;DHT22;3236;51.022;6.818;2022-10-16T15:23:56;20.40;99.90
6407;DHT22;3236;51.022;6.818;2022-10-16T15:26:24;20.30;99.90
6407;DHT22;3236;51.022;6.818;2022-10-16T15:28:51;20.50;99.90
6407;DHT22;3236;51.022;6.818;2022-10-16T15:31:18;19.80;99.90
6407;DHT22;3236;51.022;6.818;2022-10-16T15:33:45;20.10;99.90
6407;DHT22;3236;51.022;6.818;2022-10-16T15:36:24;19.70;99.90
6407;DHT22;3236;51.022;6.818;2022-10-16T15:41:19;19.70;99.90
6407;DHT22;3236;51.022;6.818;2022-10-16T15:43:48;19.60;99.90
6407;DHT22;3236;51.022;6.818;2022-10-16T15:46:17;19.10;99.90
6407;DHT22;3236;51.022;6.818;2022-10-16T15:48:44;18.90;99.90
6407;DHT22;3236;51.022;6.818;2022-10-16T15:51:11;19.30;99.90
6407;DHT22;3236;51.022;6.818;2022-10-16T15:53:40;19.10;99.90
6407;DHT22;3236;51.022;6.818;2022-10-16T15:56:08;18.70;99.90
6407;DHT22;3236;51.022;6.818;2022-10-16T15:58:36;19.30;99.90
6407;DHT22;3236;51.022;6.818;2022-10-16T16:01:04;18.90;99.90
6407;DHT22;3236;51.022;6.818;2022-10-16T16:03:31;18.90;99.90
6407;DHT22;3236;51.022;6.818;2022-10-16T16:06:03;18.60;99.90
6407;DHT22;3236;51.022;6.818;2022-10-16T16:08:30;18.80;99.90
6407;DHT22;3236;51.022;6.818;2022-10-16T16:11:02;18.40;99.90
6407;DHT22;3236;51.022;6.818;2022-10-16T16:13:30;18.10;99.90
6407;DHT22;3236;51.022;6.818;2022-10-16T16:15:57;18.70;99.90
6407;DHT22;3236;51.022;6.818;2022-10-16T16:18:24;18.50;99.90
6407;DHT22;3236;51.022;6.818;2022-10-16T16:20:51;17.90;99.90
6407;DHT22;3236;51.022;6.818;2022-10-16T16:23:19;18.10;99.90
6407;DHT22;3236;51.022;6.818;2022-10-16T16:28:40;18.40;99.90
6407;DHT22;3236;51.022;6.818;2022-10-16T16:31:07;18.40;99.90
6407;DHT22;3236;51.022;6.818;2022-10-16T16:33:35;18.30;99.90
6407;DHT22;3236;51.022;6.818;2022-10-16T16:36:04;18.30;99.90
6407;DHT22;3236;51.022;6.818;2022-10-16T16:38:33;17.50;99.90
6407;DHT22;3236;51.022;6.818;2022-10-16T16:41:11;16.50;99.90
6407;DHT22;3236;51.022;6.818;2022-10-16T16:43:40;17.70;99.90
6407;DHT22;3236;51.022;6.818;2022-10-16T16:46:07;17.90;99.90
6407;DHT22;3236;51.022;6.818;2022-10-16T16:48:34;18.10;99.90
6407;DHT22;3236;51.022;6.818;2022-10-16T16:51:05;18.00;99.90
6407;DHT22;3236;51.022;6.818;2022-10-16T16:53:34;17.80;99.90
6407;DHT22;3236;51.022;6.818;2022-10-16T16:56:02;17.80;99.90
6407;DHT22;3236;51.022;6.818;2022-10-16T16:58:29;17.90;99.90
6407;DHT22;3236;51.022;6.818;2022-10-16T17:01:02;17.60;99.90
6407;DHT22;3236;51.022;6.818;2022-10-16T17:03:30;17.70;99.90
6407;DHT22;3236;51.022;6.818;2022-10-16T17:10:52;17.90;99.90
6407;DHT22;3236;51.022;6.818;2022-10-16T17:13:20;17.60;99.90
6407;DHT22;3236;51.022;6.818;2022-10-16T17:15:48;18.10;99.90
6407;DHT22;3236;51.022;6.818;2022-10-16T17:18:18;17.70;99.90
6407;DHT22;3236;51.022;6.818;2022-10-16T17:20:45;17.90;99.90
6407;DHT22;3236;51.022;6.818;2022-10-16T17:25:41;17.90;99.90
6407;DHT22;3236;51.022;6.818;2022-10-16T17:28:09;17.80;99.90
6407;DHT22;3236;51.022;6.818;2022-10-16T17:30:38;17.70;99.90
6407;DHT22;3236;51.022;6.818;2022-10-16T17:33:05;17.50;99.90
6407;DHT22;3236;51.022;6.818;2022-10-16T17:35:37;18.00;99.90
6407;DHT22;3236;51.022;6.818;2022-10-16T17:38:04;17.80;99.90
6407;DHT22;3236;51.022;6.818;2022-10-16T17:42:58;17.60;99.90
6407;DHT22;3236;51.022;6.818;2022-10-16T17:47:53;18.30;99.90
6407;DHT22;3236;51.022;6.818;2022-10-16T17:50:20;17.80;99.90
6407;DHT22;3236;51.022;6.818;2022-10-16T17:52:49;17.80;99.90
6407;DHT22;3236;51.022;6.818;2022-10-16T17:57:43;18.00;99.90
6407;DHT22;3236;51.022;6.818;2022-10-16T18:00:11;17.70;99.90